Valiant Energy — SVA6487 — position and weather

sailwx.info

Track history (hours):
 
Tides and Currents Weather Stations Pressure Air Temp Water Temp Dewpoint Dewpoint Depression Visibility Wind Speed Wind Dir Waves Ship Positions

Valiant Energy

Last reported at 2017-Nov-20 00:30 UTC. Time now 2017-Nov-21 19:31 UTC.
Position N 40°48' E 024°30'.

Length 65 m.

Type: Ship (hazmat cat B). MMSI: 239885800.

Date/timePositionNaut miles runAvg speedWind from/ knotsBaromVisibWave heightAir tempDewpointWater temp
2017-Nov-20 00:30N 40°48' E 024°30'0 0.0
2017-Nov-19 23:57N 40°48' E 024°30'0 0.0
2017-Nov-19 23:30N 40°48' E 024°30'0 0.0
2017-Nov-19 23:00N 40°48' E 024°30'0 0.0
2017-Nov-19 22:29N 40°48' E 024°30'0 0.0
2017-Nov-19 21:59N 40°48' E 024°30'0 0.1
2017-Nov-19 21:29N 40°48' E 024°30'0 0.0
2017-Nov-19 20:59N 40°48' E 024°30'0 0.0
2017-Nov-19 20:29N 40°48' E 024°30'0 0.0
2017-Nov-19 19:59N 40°48' E 024°30'0 0.0
2017-Nov-19 19:29N 40°48' E 024°30'0 0.0
2017-Nov-19 18:59N 40°48' E 024°30'0 0.0
2017-Nov-19 18:29N 40°48' E 024°30'0 0.0
2017-Nov-19 17:59N 40°48' E 024°30'0 0.0
2017-Nov-19 17:29N 40°48' E 024°30'0 0.0
2017-Nov-19 16:59N 40°48' E 024°30'0 0.0
2017-Nov-19 16:29N 40°48' E 024°30'0 0.0
2017-Nov-19 16:00N 40°48' E 024°30'0 0.0
2017-Nov-19 15:30N 40°48' E 024°30'0 0.0
2017-Nov-19 15:00N 40°48' E 024°30'0 0.0
2017-Nov-19 14:31N 40°48' E 024°30'0 0.1
2017-Nov-19 14:00N 40°48' E 024°30'0 0.4
2017-Nov-19 13:30N 40°48' E 024°30'5 9.6
2017-Nov-19 13:00N 40°53' E 024°30'4 7.8
2017-Nov-19 12:28N 40°57' E 024°28'0 0.0
2017-Nov-19 11:58N 40°57' E 024°28'0 0.0
2017-Nov-19 11:28N 40°57' E 024°28'0 0.0
2017-Nov-19 10:58N 40°57' E 024°28'0 0.0
2017-Nov-19 10:28N 40°57' E 024°28'0 0.0
2017-Nov-19 09:58N 40°57' E 024°28'0 0.0
2017-Nov-19 09:30N 40°57' E 024°28'1 1.9
2017-Nov-19 09:01N 40°56' E 024°29'510.1
2017-Nov-19 08:31N 40°51' E 024°30'3 6.1
2017-Nov-19 08:00N 40°48' E 024°30'0 0.1
2017-Nov-19 07:30N 40°48' E 024°30'0 0.3
2017-Nov-19 06:58N 40°48' E 024°30'0 0.0
2017-Nov-19 06:28N 40°48' E 024°30'0 0.0
2017-Nov-19 05:58N 40°48' E 024°30'0 0.0
2017-Nov-19 05:28N 40°48' E 024°30'0 0.0
2017-Nov-19 04:58N 40°48' E 024°30'0 0.0
2017-Nov-19 04:28N 40°48' E 024°30'0 0.0
2017-Nov-19 03:58N 40°48' E 024°30'0 0.0
2017-Nov-19 03:28N 40°48' E 024°30'0 0.0
2017-Nov-19 02:58N 40°48' E 024°30'0 0.0
2017-Nov-19 02:28N 40°48' E 024°30'0 0.0
2017-Nov-19 01:58N 40°48' E 024°30'0 0.0
2017-Nov-19 01:28N 40°48' E 024°30'0 0.0
2017-Nov-19 00:58N 40°48' E 024°30'0 0.0
2017-Nov-19 00:28N 40°48' E 024°30'0 0.0
2017-Nov-18 23:58N 40°48' E 024°30'0 0.0
2017-Nov-18 23:28N 40°48' E 024°30'0 0.0
2017-Nov-18 22:58N 40°48' E 024°30'0 0.0
2017-Nov-18 22:28N 40°48' E 024°30'0 0.0
2017-Nov-18 21:58N 40°48' E 024°30'0 0.0
2017-Nov-18 21:28N 40°48' E 024°30'0 0.0
2017-Nov-18 20:58N 40°48' E 024°30'0 0.0
2017-Nov-18 20:28N 40°48' E 024°30'0 0.0
2017-Nov-18 19:58N 40°48' E 024°30'0 0.0
2017-Nov-18 19:28N 40°48' E 024°30'0 0.0
2017-Nov-18 18:58N 40°48' E 024°30'0 0.0
2017-Nov-18 18:28N 40°48' E 024°30'0 0.0
2017-Nov-18 18:00N 40°48' E 024°30'2 3.3
2017-Nov-18 17:30N 40°50' E 024°30'510.2
2017-Nov-18 17:00N 40°55' E 024°30'2 4.8
2017-Nov-18 16:30N 40°57' E 024°28'0 0.0
2017-Nov-18 16:00N 40°57' E 024°28'0 0.0
2017-Nov-18 15:30N 40°57' E 024°28'0 0.0
2017-Nov-18 15:00N 40°57' E 024°28'0 0.0
2017-Nov-18 14:30N 40°57' E 024°28'0 0.0
2017-Nov-18 14:00N 40°57' E 024°28'0 0.0
2017-Nov-18 13:30N 40°57' E 024°28'0 0.0
2017-Nov-18 13:00N 40°57' E 024°28'0 0.0
2017-Nov-18 12:30N 40°57' E 024°28'0 0.0
2017-Nov-18 12:00N 40°57' E 024°28'0 0.0
2017-Nov-18 11:30N 40°57' E 024°28'0 0.0
2017-Nov-18 11:00N 40°57' E 024°28'0 0.0
2017-Nov-18 10:30N 40°57' E 024°28'1 1.7
2017-Nov-18 10:01N 40°56' E 024°29'2 3.2
2017-Nov-18 09:30N 40°55' E 024°29'4 7.0
2017-Nov-18 09:00N 40°51' E 024°30'3 6.3
2017-Nov-18 08:30N 40°48' E 024°30'0 0.2
2017-Nov-18 07:58N 40°48' E 024°30'0 0.0
2017-Nov-18 07:28N 40°48' E 024°30'0 0.0
2017-Nov-18 06:58N 40°48' E 024°30'0 0.0
2017-Nov-18 06:28N 40°48' E 024°30'0 0.0
2017-Nov-18 05:58N 40°48' E 024°30'0 0.0
2017-Nov-18 05:28N 40°48' E 024°30'0 0.0
2017-Nov-18 05:01N 40°48' E 024°30'0 0.0
2017-Nov-18 04:31N 40°48' E 024°30'0 0.0
2017-Nov-18 04:01N 40°48' E 024°30'0 0.0
2017-Nov-18 03:30N 40°48' E 024°30'0 0.0
2017-Nov-18 02:57N 40°48' E 024°30'0 0.0
2017-Nov-18 02:30N 40°48' E 024°30'0 0.0
2017-Nov-18 02:00N 40°48' E 024°30'0 0.0
2017-Nov-18 01:30N 40°48' E 024°30'0 0.0
2017-Nov-18 01:00N 40°48' E 024°30'0 0.0
2017-Nov-18 00:30N 40°48' E 024°30'0 0.0
2017-Nov-18 00:00N 40°48' E 024°30'0 0.0
2017-Nov-17 23:30N 40°48' E 024°30'0 0.0
2017-Nov-17 23:00N 40°48' E 024°30'0 0.0
2017-Nov-17 22:30N 40°48' E 024°30'0 0.0
2017-Nov-17 22:00N 40°48' E 024°30'0 0.0
2017-Nov-17 21:30N 40°48' E 024°30'0 0.0
2017-Nov-17 21:00N 40°48' E 024°30'0 0.0
2017-Nov-17 20:30N 40°48' E 024°30'0 0.0
2017-Nov-17 20:00N 40°48' E 024°30'0 0.0
2017-Nov-17 19:30N 40°48' E 024°30'0 0.0
2017-Nov-17 19:00N 40°48' E 024°30'0 0.0
2017-Nov-17 18:30N 40°48' E 024°30'0 0.0
2017-Nov-17 18:00N 40°48' E 024°30'0 0.0
2017-Nov-17 17:30N 40°48' E 024°30'0 0.0
2017-Nov-17 17:00N 40°48' E 024°30'0 0.0
2017-Nov-17 16:30N 40°48' E 024°30'0 0.0
2017-Nov-17 16:00N 40°48' E 024°30'0 0.0
2017-Nov-17 15:30N 40°48' E 024°30'0 0.0
2017-Nov-17 15:00N 40°48' E 024°30'0 0.0
2017-Nov-17 14:30N 40°48' E 024°30'0 0.0
2017-Nov-17 14:00N 40°48' E 024°30'0 0.0
2017-Nov-17 13:30N 40°48' E 024°30'0 0.0
2017-Nov-17 12:57N 40°48' E 024°30'0 0.0
2017-Nov-17 12:30N 40°48' E 024°30'0 0.0
2017-Nov-17 12:00N 40°48' E 024°30'0 0.0
2017-Nov-17 11:30N 40°48' E 024°30'0 0.0
2017-Nov-17 11:00N 40°48' E 024°30'0 0.0
2017-Nov-17 10:30N 40°48' E 024°30'0 0.0
2017-Nov-17 10:00N 40°48' E 024°30'0 0.0
2017-Nov-17 09:30N 40°48' E 024°30'0 0.0
2017-Nov-17 09:00N 40°48' E 024°30'0 0.0
2017-Nov-17 08:30N 40°48' E 024°30'0 0.0
2017-Nov-17 08:00N 40°48' E 024°30'0 0.0
2017-Nov-17 07:30N 40°48' E 024°30'0 0.0
2017-Nov-17 07:00N 40°48' E 024°30'0 0.4
2017-Nov-17 06:31N 40°48' E 024°30'2 4.1
2017-Nov-17 06:00N 40°50' E 024°30'510.2
2017-Nov-17 05:31N 40°55' E 024°29'2 3.7
2017-Nov-17 05:00N 40°57' E 024°28'0 0.1
2017-Nov-17 04:28N 40°57' E 024°28'0 0.0
2017-Nov-17 03:58N 40°57' E 024°28'0 0.0
2017-Nov-17 03:28N 40°57' E 024°28'0 0.0
2017-Nov-17 02:58N 40°57' E 024°28'0 0.0
2017-Nov-17 02:28N 40°57' E 024°28'0 0.0
2017-Nov-17 01:58N 40°57' E 024°28'0 0.0
2017-Nov-17 01:28N 40°57' E 024°28'0 0.0
2017-Nov-17 00:58N 40°57' E 024°28'0 0.0
2017-Nov-17 00:28N 40°57' E 024°28'0 0.0
2017-Nov-17 00:01N 40°57' E 024°28'0 0.0
2017-Nov-16 23:31N 40°57' E 024°28'0 0.0
2017-Nov-16 23:00N 40°57' E 024°28'0 0.0
2017-Nov-16 22:30N 40°57' E 024°28'0 0.0
2017-Nov-16 22:00N 40°57' E 024°28'0 0.0
2017-Nov-16 21:30N 40°57' E 024°28'0 0.0
2017-Nov-16 21:01N 40°57' E 024°28'0 0.0
2017-Nov-16 20:31N 40°57' E 024°28'5 9.2
2017-Nov-16 20:01N 40°52' E 024°29'4 7.2
2017-Nov-16 19:31N 40°49' E 024°29'0 0.1
2017-Nov-16 19:00N 40°49' E 024°29'1 1.9
2017-Nov-16 18:30N 40°48' E 024°30'0 0.5
2017-Nov-16 18:00N 40°48' E 024°30'0 0.0
2017-Nov-16 17:30N 40°48' E 024°30'0 0.0
2017-Nov-16 17:00N 40°48' E 024°30'0 0.0
2017-Nov-16 16:30N 40°48' E 024°30'0 0.1
2017-Nov-16 16:00N 40°48' E 024°30'0 0.3
2017-Nov-16 15:30N 40°48' E 024°30'1 2.6
2017-Nov-16 15:00N 40°49' E 024°30'5 9.8
2017-Nov-16 14:30N 40°54' E 024°30'3 5.3
2017-Nov-16 13:59N 40°57' E 024°28'0 0.0
2017-Nov-16 13:26N 40°57' E 024°28'0 0.0
2017-Nov-16 12:59N 40°57' E 024°28'0 0.0
2017-Nov-16 12:29N 40°57' E 024°28'0 0.0
2017-Nov-16 11:59N 40°57' E 024°28'0 0.0
2017-Nov-16 11:29N 40°57' E 024°28'0 0.0
2017-Nov-16 10:59N 40°57' E 024°28'0 0.0
2017-Nov-16 10:29N 40°57' E 024°28'0 0.0
2017-Nov-16 09:59N 40°57' E 024°28'0 0.0
2017-Nov-16 09:29N 40°57' E 024°28'0 0.0
2017-Nov-16 08:59N 40°57' E 024°28'0 0.0
2017-Nov-16 08:31N 40°57' E 024°28'4 8.5
2017-Nov-16 08:00N 40°53' E 024°29'5 9.2
2017-Nov-16 07:30N 40°48' E 024°30'0 0.0
2017-Nov-16 07:00N 40°48' E 024°30'0 0.3
2017-Nov-16 06:30N 40°48' E 024°30'1 1.7
2017-Nov-16 05:59N 40°49' E 024°29'0 0.0
2017-Nov-16 05:26N 40°49' E 024°29'0 0.1
2017-Nov-16 04:59N 40°49' E 024°29'0 0.0
2017-Nov-16 04:29N 40°49' E 024°29'0 0.0
2017-Nov-16 03:59N 40°49' E 024°29'0 0.0
2017-Nov-16 03:29N 40°49' E 024°29'0 0.0
2017-Nov-16 02:59N 40°49' E 024°29'0 0.0
2017-Nov-16 02:29N 40°49' E 024°29'0 0.0
2017-Nov-16 01:59N 40°49' E 024°29'0 0.0
2017-Nov-16 01:29N 40°49' E 024°29'0 0.0
2017-Nov-16 00:56N 40°49' E 024°29'0 0.0
2017-Nov-16 00:20N 40°49' E 024°29'0 0.0
2017-Nov-15 23:59N 40°49' E 024°29'0 0.0
2017-Nov-15 23:29N 40°49' E 024°29'0 0.0
2017-Nov-15 22:59N 40°49' E 024°29'0 0.0
2017-Nov-15 22:29N 40°49' E 024°29'0 0.0
2017-Nov-15 21:59N 40°49' E 024°29'0 0.0
2017-Nov-15 21:29N 40°49' E 024°29'0 0.0
2017-Nov-15 20:59N 40°49' E 024°29'0 0.0
2017-Nov-15 20:29N 40°49' E 024°29'0 0.0
2017-Nov-15 19:59N 40°49' E 024°29'0 0.0
2017-Nov-15 19:29N 40°49' E 024°29'0 0.0
2017-Nov-15 18:56N 40°49' E 024°29'0 0.0
2017-Nov-15 18:29N 40°49' E 024°29'2 4.0
2017-Nov-15 18:00N 40°50' E 024°30'5 9.8
2017-Nov-15 17:30N 40°55' E 024°29'2 3.4
2017-Nov-15 16:59N 40°57' E 024°28'0 0.0
2017-Nov-15 16:29N 40°57' E 024°28'0 0.0
2017-Nov-15 15:59N 40°57' E 024°28'0 0.0
2017-Nov-15 15:29N 40°57' E 024°28'0 0.0
2017-Nov-15 14:59N 40°57' E 024°28'0 0.0
2017-Nov-15 14:29N 40°57' E 024°28'0 0.0
2017-Nov-15 13:59N 40°57' E 024°28'0 0.0
2017-Nov-15 13:29N 40°57' E 024°28'0 0.0
2017-Nov-15 12:59N 40°57' E 024°28'0 0.0
2017-Nov-15 12:29N 40°57' E 024°28'0 0.0
2017-Nov-15 11:59N 40°57' E 024°28'0 0.0
2017-Nov-15 11:29N 40°57' E 024°28'0 0.0
2017-Nov-15 10:59N 40°57' E 024°28'0 0.0
2017-Nov-15 10:29N 40°57' E 024°28'0 0.0
2017-Nov-15 09:59N 40°57' E 024°28'0 0.0
2017-Nov-15 09:29N 40°57' E 024°28'0 0.0
2017-Nov-15 08:59N 40°57' E 024°28'0 0.0
2017-Nov-15 08:29N 40°57' E 024°28'0 0.0
2017-Nov-15 07:59N 40°57' E 024°28'0 0.0
2017-Nov-15 07:29N 40°57' E 024°28'0 0.0
2017-Nov-15 06:59N 40°57' E 024°28'0 0.0
2017-Nov-15 06:30N 40°57' E 024°28'2 3.8
2017-Nov-15 06:00N 40°55' E 024°30'510.4
2017-Nov-15 05:30N 40°50' E 024°30'2 3.8
2017-Nov-15 05:00N 40°48' E 024°30'0 0.0
2017-Nov-15 04:30N 40°48' E 024°30'0 0.0
2017-Nov-15 04:00N 40°48' E 024°30'0 0.0
2017-Nov-15 03:30N 40°48' E 024°30'0 0.0
2017-Nov-15 03:00N 40°48' E 024°30'0 0.0
2017-Nov-15 02:30N 40°48' E 024°30'0 0.0
2017-Nov-15 02:00N 40°48' E 024°30'0 0.0
2017-Nov-15 01:30N 40°48' E 024°30'0 0.0
2017-Nov-15 01:00N 40°48' E 024°30'0 0.0
2017-Nov-15 00:30N 40°48' E 024°30'0 0.0
2017-Nov-15 00:00N 40°48' E 024°30'0 0.0
2017-Nov-14 23:30N 40°48' E 024°30'0 0.0
2017-Nov-14 23:00N 40°48' E 024°30'0 0.0
2017-Nov-14 22:30N 40°48' E 024°30'0 0.0
2017-Nov-14 22:00N 40°48' E 024°30'0 0.0
2017-Nov-14 21:30N 40°48' E 024°30'0 0.0
2017-Nov-14 21:00N 40°48' E 024°30'0 0.0
2017-Nov-14 20:30N 40°48' E 024°30'0 0.0
2017-Nov-14 20:00N 40°48' E 024°30'0 0.0
2017-Nov-14 19:30N 40°48' E 024°30'0 0.0
2017-Nov-14 19:00N 40°48' E 024°30'0 0.0
2017-Nov-14 18:30N 40°48' E 024°30'0 0.0
2017-Nov-14 18:00N 40°48' E 024°30'0 0.0
2017-Nov-14 17:30N 40°48' E 024°30'0 0.0
2017-Nov-14 17:00N 40°48' E 024°30'0 0.0
2017-Nov-14 16:30N 40°48' E 024°30'0 0.0
2017-Nov-14 16:00N 40°48' E 024°30'0 0.0
2017-Nov-14 15:30N 40°48' E 024°30'0 0.3
2017-Nov-14 15:00N 40°48' E 024°30'4 7.9
2017-Nov-14 14:30N 40°52' E 024°30'5 9.7
2017-Nov-14 14:00N 40°57' E 024°29'0 0.9
2017-Nov-14 13:30N 40°57' E 024°28'0 0.0
2017-Nov-14 13:00N 40°57' E 024°28'0 0.0
2017-Nov-14 12:30N 40°57' E 024°28'0 0.1
2017-Nov-14 12:00N 40°57' E 024°28'5 9.5
2017-Nov-14 11:30N 40°52' E 024°30'4 8.2
2017-Nov-14 11:00N 40°48' E 024°30'0 0.0
2017-Nov-14 10:30N 40°48' E 024°30'0 0.0
2017-Nov-14 10:00N 40°48' E 024°30'0 0.0
2017-Nov-14 09:30N 40°48' E 024°30'0 0.0
2017-Nov-14 09:00N 40°48' E 024°30'0 0.0
2017-Nov-14 08:30N 40°48' E 024°30'0 0.0
2017-Nov-14 08:00N 40°48' E 024°30'0 0.0
2017-Nov-14 07:30N 40°48' E 024°30'0 0.0
2017-Nov-14 07:00N 40°48' E 024°30'0 0.0
2017-Nov-14 06:27N 40°48' E 024°30'0 0.0
2017-Nov-14 05:57N 40°48' E 024°30'0 0.0
2017-Nov-14 05:30N 40°48' E 024°30'0 0.0
2017-Nov-14 05:00N 40°48' E 024°30'0 0.0
2017-Nov-14 04:30N 40°48' E 024°30'0 0.0
2017-Nov-14 04:00N 40°48' E 024°30'0 0.0
2017-Nov-14 03:30N 40°48' E 024°30'0 0.0
2017-Nov-14 03:00N 40°48' E 024°30'0 0.0
2017-Nov-14 02:30N 40°48' E 024°30'0 0.0
2017-Nov-14 02:00N 40°48' E 024°30'0 0.0
2017-Nov-14 01:30N 40°48' E 024°30'0 0.0
2017-Nov-14 01:00N 40°48' E 024°30'0 0.0
2017-Nov-14 00:30N 40°48' E 024°30'0 0.0
2017-Nov-14 00:00N 40°48' E 024°30'0 0.0
2017-Nov-13 23:30N 40°48' E 024°30'0 0.0
2017-Nov-13 23:00N 40°48' E 024°30'0 0.0
2017-Nov-13 22:30N 40°48' E 024°30'0 0.0
2017-Nov-13 22:00N 40°48' E 024°30'0 0.0
2017-Nov-13 02:00N 40°48' E 024°30'0 0.0
2017-Nov-13 01:30N 40°48' E 024°30'0 0.0
2017-Nov-13 01:00N 40°48' E 024°30'0 0.0
2017-Nov-13 00:30N 40°48' E 024°30'0 0.0
2017-Nov-13 00:00N 40°48' E 024°30'0 0.0
2017-Nov-12 23:30N 40°48' E 024°30'0 0.0
2017-Nov-12 23:00N 40°48' E 024°30'0 0.0
2017-Nov-12 22:30N 40°48' E 024°30'0 0.0
2017-Nov-12 22:00N 40°48' E 024°30'0 0.0
2017-Nov-12 21:30N 40°48' E 024°30'0 0.0
2017-Nov-12 21:00N 40°48' E 024°30'0 0.0
2017-Nov-12 20:30N 40°48' E 024°30'0 0.0
2017-Nov-12 20:00N 40°48' E 024°30'0 0.0
2017-Nov-12 19:30N 40°48' E 024°30'0 0.0
2017-Nov-12 19:00N 40°48' E 024°30'0 0.0
2017-Nov-12 18:30N 40°48' E 024°30'0 0.0
2017-Nov-12 18:00N 40°48' E 024°30'0 0.0
2017-Nov-12 17:30N 40°48' E 024°30'0 0.0
2017-Nov-12 17:00N 40°48' E 024°30'0 0.0
2017-Nov-12 16:30N 40°48' E 024°30'0 0.0
2017-Nov-12 16:00N 40°48' E 024°30'0 0.0
2017-Nov-12 15:30N 40°48' E 024°30'0 0.0
2017-Nov-12 15:00N 40°48' E 024°30'0 0.0
2017-Nov-12 14:30N 40°48' E 024°30'0 0.0
2017-Nov-12 14:00N 40°48' E 024°30'0 0.0
2017-Nov-12 13:30N 40°48' E 024°30'0 0.0
2017-Nov-12 13:00N 40°48' E 024°30'0 0.0
2017-Nov-12 12:30N 40°48' E 024°30'0 0.0
2017-Nov-12 12:00N 40°48' E 024°30'0 0.0
2017-Nov-12 11:30N 40°48' E 024°30'0 0.8
2017-Nov-12 11:00N 40°48' E 024°30'510.2
2017-Nov-12 10:30N 40°53' E 024°30'4 6.6
2017-Nov-12 09:58N 40°57' E 024°28'0 0.0
2017-Nov-12 09:28N 40°57' E 024°28'0 0.0
2017-Nov-12 08:58N 40°57' E 024°28'0 0.0
2017-Nov-12 08:28N 40°57' E 024°28'0 0.0
2017-Nov-12 07:55N 40°57' E 024°28'0 0.0
2017-Nov-12 07:28N 40°57' E 024°28'0 0.0
2017-Nov-12 06:58N 40°57' E 024°28'1 2.2
2017-Nov-12 06:30N 40°56' E 024°29'510.0
2017-Nov-12 06:00N 40°51' E 024°30'3 6.3
2017-Nov-12 05:30N 40°48' E 024°30'0 0.0
2017-Nov-12 05:00N 40°48' E 024°30'0 0.1
2017-Nov-12 04:30N 40°48' E 024°30'0 0.4
2017-Nov-12 04:00N 40°48' E 024°30'0 0.0
2017-Nov-12 03:30N 40°48' E 024°30'0 0.0
2017-Nov-12 03:00N 40°48' E 024°30'0 0.0
2017-Nov-12 02:30N 40°48' E 024°30'0 0.0
2017-Nov-12 02:00N 40°48' E 024°30'0 0.0
2017-Nov-12 01:30N 40°48' E 024°30'0 0.0
2017-Nov-12 01:00N 40°48' E 024°30'0 0.0
2017-Nov-12 00:30N 40°48' E 024°30'0 0.0
2017-Nov-12 00:00N 40°48' E 024°30'0 0.0
2017-Nov-11 23:30N 40°48' E 024°30'0 0.0
2017-Nov-11 23:00N 40°48' E 024°30'0 0.0
2017-Nov-11 22:30N 40°48' E 024°30'0 0.0
2017-Nov-11 22:01N 40°48' E 024°30'0 0.0
2017-Nov-11 21:31N 40°48' E 024°30'0 0.0
2017-Nov-11 21:01N 40°48' E 024°30'0 0.0
2017-Nov-11 20:31N 40°48' E 024°30'0 0.0
2017-Nov-11 20:01N 40°48' E 024°30'0 0.0
2017-Nov-11 19:31N 40°48' E 024°30'0 0.0
2017-Nov-11 19:00N 40°48' E 024°30'0 0.0
2017-Nov-11 18:31N 40°48' E 024°30'0 0.0
2017-Nov-11 18:00N 40°48' E 024°30'0 0.0
2017-Nov-11 17:31N 40°48' E 024°30'0 0.0
2017-Nov-11 17:01N 40°48' E 024°30'0 0.0
2017-Nov-11 16:31N 40°48' E 024°30'0 0.0
2017-Nov-11 16:01N 40°48' E 024°30'0 0.0
2017-Nov-11 15:31N 40°48' E 024°30'0 0.0
2017-Nov-11 15:01N 40°48' E 024°30'0 0.0
2017-Nov-11 14:28N 40°48' E 024°30'0 0.0
2017-Nov-11 14:01N 40°48' E 024°30'0 0.0
2017-Nov-11 13:31N 40°48' E 024°30'2 3.6
2017-Nov-11 13:01N 40°50' E 024°30'510.2
2017-Nov-11 12:30N 40°55' E 024°29'2 4.0
2017-Nov-11 12:00N 40°57' E 024°28'0 0.0
2017-Nov-11 11:30N 40°57' E 024°28'0 0.0
2017-Nov-11 11:00N 40°57' E 024°28'0 0.0
2017-Nov-11 10:30N 40°57' E 024°28'0 0.0
2017-Nov-11 09:57N 40°57' E 024°28'0 0.0
2017-Nov-11 09:30N 40°57' E 024°28'0 0.0
2017-Nov-11 09:00N 40°57' E 024°28'0 0.0
2017-Nov-11 08:30N 40°57' E 024°28'0 0.0
2017-Nov-11 08:00N 40°57' E 024°28'0 0.0
2017-Nov-11 07:30N 40°57' E 024°28'0 0.0
2017-Nov-11 07:00N 40°57' E 024°28'0 0.0
2017-Nov-11 06:30N 40°57' E 024°28'2 3.4
2017-Nov-11 06:00N 40°55' E 024°29'510.1
2017-Nov-11 05:30N 40°50' E 024°30'2 4.6
2017-Nov-11 05:00N 40°48' E 024°30'0 0.0
2017-Nov-11 04:30N 40°48' E 024°30'0 0.0
2017-Nov-11 04:00N 40°48' E 024°30'0 0.0
2017-Nov-11 03:30N 40°48' E 024°30'0 0.0
2017-Nov-11 03:00N 40°48' E 024°30'0 0.0
2017-Nov-11 02:30N 40°48' E 024°30'0 0.0
2017-Nov-11 02:00N 40°48' E 024°30'0 0.0
2017-Nov-11 01:30N 40°48' E 024°30'0 0.0
2017-Nov-11 01:00N 40°48' E 024°30'0 0.0
2017-Nov-11 00:30N 40°48' E 024°30'0 0.0
2017-Nov-11 00:00N 40°48' E 024°30'0 0.0
2017-Nov-10 23:30N 40°48' E 024°30'0 0.0
2017-Nov-10 23:00N 40°48' E 024°30'0 0.0
2017-Nov-10 22:30N 40°48' E 024°30'0 0.0
2017-Nov-10 22:00N 40°48' E 024°30'0 0.0
2017-Nov-10 21:30N 40°48' E 024°30'0 0.0
2017-Nov-10 21:00N 40°48' E 024°30'0 0.0
2017-Nov-10 20:30N 40°48' E 024°30'0 0.0
2017-Nov-10 20:00N 40°48' E 024°30'0 0.0
2017-Nov-10 19:30N 40°48' E 024°30'0 0.2
2017-Nov-10 19:00N 40°48' E 024°30'0 0.0
2017-Nov-10 18:30N 40°48' E 024°30'1 2.5
2017-Nov-10 18:00N 40°49' E 024°30'510.0
2017-Nov-10 17:30N 40°54' E 024°30'3 5.3
2017-Nov-10 16:59N 40°57' E 024°28'0 0.0
2017-Nov-10 16:29N 40°57' E 024°28'0 0.0
2017-Nov-10 15:59N 40°57' E 024°28'0 0.0
2017-Nov-10 15:29N 40°57' E 024°28'0 0.0
2017-Nov-10 14:50N 40°57' E 024°28'0 0.0
2017-Nov-10 14:29N 40°57' E 024°28'0 0.0
2017-Nov-10 13:59N 40°57' E 024°28'0 0.0
2017-Nov-10 13:29N 40°57' E 024°28'0 0.0
2017-Nov-10 12:59N 40°57' E 024°28'0 0.0
2017-Nov-10 12:29N 40°57' E 024°28'0 0.0
2017-Nov-10 11:59N 40°57' E 024°28'0 0.0
2017-Nov-10 11:29N 40°57' E 024°28'0 0.0
2017-Nov-10 10:59N 40°57' E 024°28'0 0.0
2017-Nov-10 10:23N 40°57' E 024°28'0 0.0
2017-Nov-10 09:59N 40°57' E 024°28'0 0.0
2017-Nov-10 09:29N 40°57' E 024°28'0 0.0
2017-Nov-10 08:59N 40°57' E 024°28'0 0.0
2017-Nov-10 08:29N 40°57' E 024°28'0 0.0
2017-Nov-10 07:59N 40°57' E 024°28'0 0.0
2017-Nov-10 07:31N 40°57' E 024°28'0 0.0
2017-Nov-10 07:00N 40°57' E 024°28'1 1.3
2017-Nov-10 06:30N 40°56' E 024°29'5 9.4
2017-Nov-10 06:00N 40°52' E 024°30'4 7.0
2017-Nov-10 05:28N 40°48' E 024°30'0 0.0
2017-Nov-10 04:46N 40°48' E 024°30'0 0.0
2017-Nov-10 04:28N 40°48' E 024°30'0 0.0
2017-Nov-10 03:58N 40°48' E 024°30'0 0.0
2017-Nov-10 03:28N 40°48' E 024°30'0 0.0
2017-Nov-10 02:58N 40°48' E 024°30'0 0.0
2017-Nov-10 02:28N 40°48' E 024°30'0 0.0
2017-Nov-10 01:58N 40°48' E 024°30'0 0.0
2017-Nov-10 01:31N 40°48' E 024°30'0 0.0
2017-Nov-10 01:01N 40°48' E 024°30'0 0.0
2017-Nov-10 00:30N 40°48' E 024°30'  
Track history (hours):
 
Tides and Currents Weather Stations Pressure Air Temp Water Temp Dewpoint Dewpoint Depression Visibility Wind Speed Wind Dir Waves Ship Positions

Valiant Energy

Last reported at 2017-Nov-20 00:30 UTC. Time now 2017-Nov-21 19:31 UTC.
Position N 40°48' E 024°30'.

Length 65 m.

Type: Ship (hazmat cat B). MMSI: 239885800.

Date/timePositionNaut miles runAvg speedWind from/ knotsBaromVisibWave heightAir tempDewpointWater temp
2017-Nov-20 00:30N 40°48' E 024°30'0 0.0
2017-Nov-19 23:57N 40°48' E 024°30'0 0.0
2017-Nov-19 23:30N 40°48' E 024°30'0 0.0
2017-Nov-19 23:00N 40°48' E 024°30'0 0.0
2017-Nov-19 22:29N 40°48' E 024°30'0 0.0
2017-Nov-19 21:59N 40°48' E 024°30'0 0.1
2017-Nov-19 21:29N 40°48' E 024°30'0 0.0
2017-Nov-19 20:59N 40°48' E 024°30'0 0.0
2017-Nov-19 20:29N 40°48' E 024°30'0 0.0
2017-Nov-19 19:59N 40°48' E 024°30'0 0.0
2017-Nov-19 19:29N 40°48' E 024°30'0 0.0
2017-Nov-19 18:59N 40°48' E 024°30'0 0.0
2017-Nov-19 18:29N 40°48' E 024°30'0 0.0
2017-Nov-19 17:59N 40°48' E 024°30'0 0.0
2017-Nov-19 17:29N 40°48' E 024°30'0 0.0
2017-Nov-19 16:59N 40°48' E 024°30'0 0.0
2017-Nov-19 16:29N 40°48' E 024°30'0 0.0
2017-Nov-19 16:00N 40°48' E 024°30'0 0.0
2017-Nov-19 15:30N 40°48' E 024°30'0 0.0
2017-Nov-19 15:00N 40°48' E 024°30'0 0.0
2017-Nov-19 14:31N 40°48' E 024°30'0 0.1
2017-Nov-19 14:00N 40°48' E 024°30'0 0.4
2017-Nov-19 13:30N 40°48' E 024°30'5 9.6
2017-Nov-19 13:00N 40°53' E 024°30'4 7.8
2017-Nov-19 12:28N 40°57' E 024°28'0 0.0
2017-Nov-19 11:58N 40°57' E 024°28'0 0.0
2017-Nov-19 11:28N 40°57' E 024°28'0 0.0
2017-Nov-19 10:58N 40°57' E 024°28'0 0.0
2017-Nov-19 10:28N 40°57' E 024°28'0 0.0
2017-Nov-19 09:58N 40°57' E 024°28'0 0.0
2017-Nov-19 09:30N 40°57' E 024°28'1 1.9
2017-Nov-19 09:01N 40°56' E 024°29'510.1
2017-Nov-19 08:31N 40°51' E 024°30'3 6.1
2017-Nov-19 08:00N 40°48' E 024°30'0 0.1
2017-Nov-19 07:30N 40°48' E 024°30'0 0.3
2017-Nov-19 06:58N 40°48' E 024°30'0 0.0
2017-Nov-19 06:28N 40°48' E 024°30'0 0.0
2017-Nov-19 05:58N 40°48' E 024°30'0 0.0
2017-Nov-19 05:28N 40°48' E 024°30'0 0.0
2017-Nov-19 04:58N 40°48' E 024°30'0 0.0
2017-Nov-19 04:28N 40°48' E 024°30'0 0.0
2017-Nov-19 03:58N 40°48' E 024°30'0 0.0
2017-Nov-19 03:28N 40°48' E 024°30'0 0.0
2017-Nov-19 02:58N 40°48' E 024°30'0 0.0
2017-Nov-19 02:28N 40°48' E 024°30'0 0.0
2017-Nov-19 01:58N 40°48' E 024°30'0 0.0
2017-Nov-19 01:28N 40°48' E 024°30'0 0.0
2017-Nov-19 00:58N 40°48' E 024°30'0 0.0
2017-Nov-19 00:28N 40°48' E 024°30'0 0.0
2017-Nov-18 23:58N 40°48' E 024°30'0 0.0
2017-Nov-18 23:28N 40°48' E 024°30'0 0.0
2017-Nov-18 22:58N 40°48' E 024°30'0 0.0
2017-Nov-18 22:28N 40°48' E 024°30'0 0.0
2017-Nov-18 21:58N 40°48' E 024°30'0 0.0
2017-Nov-18 21:28N 40°48' E 024°30'0 0.0
2017-Nov-18 20:58N 40°48' E 024°30'0 0.0
2017-Nov-18 20:28N 40°48' E 024°30'0 0.0
2017-Nov-18 19:58N 40°48' E 024°30'0 0.0
2017-Nov-18 19:28N 40°48' E 024°30'0 0.0
2017-Nov-18 18:58N 40°48' E 024°30'0 0.0
2017-Nov-18 18:28N 40°48' E 024°30'0 0.0
2017-Nov-18 18:00N 40°48' E 024°30'2 3.3
2017-Nov-18 17:30N 40°50' E 024°30'510.2
2017-Nov-18 17:00N 40°55' E 024°30'2 4.8
2017-Nov-18 16:30N 40°57' E 024°28'0 0.0
2017-Nov-18 16:00N 40°57' E 024°28'0 0.0
2017-Nov-18 15:30N 40°57' E 024°28'0 0.0
2017-Nov-18 15:00N 40°57' E 024°28'0 0.0
2017-Nov-18 14:30N 40°57' E 024°28'0 0.0
2017-Nov-18 14:00N 40°57' E 024°28'0 0.0
2017-Nov-18 13:30N 40°57' E 024°28'0 0.0
2017-Nov-18 13:00N 40°57' E 024°28'0 0.0
2017-Nov-18 12:30N 40°57' E 024°28'0 0.0
2017-Nov-18 12:00N 40°57' E 024°28'0 0.0
2017-Nov-18 11:30N 40°57' E 024°28'0 0.0
2017-Nov-18 11:00N 40°57' E 024°28'0 0.0
2017-Nov-18 10:30N 40°57' E 024°28'1 1.7
2017-Nov-18 10:01N 40°56' E 024°29'2 3.2
2017-Nov-18 09:30N 40°55' E 024°29'4 7.0
2017-Nov-18 09:00N 40°51' E 024°30'3 6.3
2017-Nov-18 08:30N 40°48' E 024°30'0 0.2
2017-Nov-18 07:58N 40°48' E 024°30'0 0.0
2017-Nov-18 07:28N 40°48' E 024°30'0 0.0
2017-Nov-18 06:58N 40°48' E 024°30'0 0.0
2017-Nov-18 06:28N 40°48' E 024°30'0 0.0
2017-Nov-18 05:58N 40°48' E 024°30'0 0.0
2017-Nov-18 05:28N 40°48' E 024°30'0 0.0
2017-Nov-18 05:01N 40°48' E 024°30'0 0.0
2017-Nov-18 04:31N 40°48' E 024°30'0 0.0
2017-Nov-18 04:01N 40°48' E 024°30'0 0.0
2017-Nov-18 03:30N 40°48' E 024°30'0 0.0
2017-Nov-18 02:57N 40°48' E 024°30'0 0.0
2017-Nov-18 02:30N 40°48' E 024°30'0 0.0
2017-Nov-18 02:00N 40°48' E 024°30'0 0.0
2017-Nov-18 01:30N 40°48' E 024°30'0 0.0
2017-Nov-18 01:00N 40°48' E 024°30'0 0.0
2017-Nov-18 00:30N 40°48' E 024°30'0 0.0
2017-Nov-18 00:00N 40°48' E 024°30'0 0.0
2017-Nov-17 23:30N 40°48' E 024°30'0 0.0
2017-Nov-17 23:00N 40°48' E 024°30'0 0.0
2017-Nov-17 22:30N 40°48' E 024°30'0 0.0
2017-Nov-17 22:00N 40°48' E 024°30'0 0.0
2017-Nov-17 21:30N 40°48' E 024°30'0 0.0
2017-Nov-17 21:00N 40°48' E 024°30'0 0.0
2017-Nov-17 20:30N 40°48' E 024°30'0 0.0
2017-Nov-17 20:00N 40°48' E 024°30'0 0.0
2017-Nov-17 19:30N 40°48' E 024°30'0 0.0
2017-Nov-17 19:00N 40°48' E 024°30'0 0.0
2017-Nov-17 18:30N 40°48' E 024°30'0 0.0
2017-Nov-17 18:00N 40°48' E 024°30'0 0.0
2017-Nov-17 17:30N 40°48' E 024°30'0 0.0
2017-Nov-17 17:00N 40°48' E 024°30'0 0.0
2017-Nov-17 16:30N 40°48' E 024°30'0 0.0
2017-Nov-17 16:00N 40°48' E 024°30'0 0.0
2017-Nov-17 15:30N 40°48' E 024°30'0 0.0
2017-Nov-17 15:00N 40°48' E 024°30'0 0.0
2017-Nov-17 14:30N 40°48' E 024°30'0 0.0
2017-Nov-17 14:00N 40°48' E 024°30'0 0.0
2017-Nov-17 13:30N 40°48' E 024°30'0 0.0
2017-Nov-17 12:57N 40°48' E 024°30'0 0.0
2017-Nov-17 12:30N 40°48' E 024°30'0 0.0
2017-Nov-17 12:00N 40°48' E 024°30'0 0.0
2017-Nov-17 11:30N 40°48' E 024°30'0 0.0
2017-Nov-17 11:00N 40°48' E 024°30'0 0.0
2017-Nov-17 10:30N 40°48' E 024°30'0 0.0
2017-Nov-17 10:00N 40°48' E 024°30'0 0.0
2017-Nov-17 09:30N 40°48' E 024°30'0 0.0
2017-Nov-17 09:00N 40°48' E 024°30'0 0.0
2017-Nov-17 08:30N 40°48' E 024°30'0 0.0
2017-Nov-17 08:00N 40°48' E 024°30'0 0.0
2017-Nov-17 07:30N 40°48' E 024°30'0 0.0
2017-Nov-17 07:00N 40°48' E 024°30'0 0.4
2017-Nov-17 06:31N 40°48' E 024°30'2 4.1
2017-Nov-17 06:00N 40°50' E 024°30'510.2
2017-Nov-17 05:31N 40°55' E 024°29'2 3.7
2017-Nov-17 05:00N 40°57' E 024°28'0 0.1
2017-Nov-17 04:28N 40°57' E 024°28'0 0.0
2017-Nov-17 03:58N 40°57' E 024°28'0 0.0
2017-Nov-17 03:28N 40°57' E 024°28'0 0.0
2017-Nov-17 02:58N 40°57' E 024°28'0 0.0
2017-Nov-17 02:28N 40°57' E 024°28'0 0.0
2017-Nov-17 01:58N 40°57' E 024°28'0 0.0
2017-Nov-17 01:28N 40°57' E 024°28'0 0.0
2017-Nov-17 00:58N 40°57' E 024°28'0 0.0
2017-Nov-17 00:28N 40°57' E 024°28'0 0.0
2017-Nov-17 00:01N 40°57' E 024°28'0 0.0
2017-Nov-16 23:31N 40°57' E 024°28'0 0.0
2017-Nov-16 23:00N 40°57' E 024°28'0 0.0
2017-Nov-16 22:30N 40°57' E 024°28'0 0.0
2017-Nov-16 22:00N 40°57' E 024°28'0 0.0
2017-Nov-16 21:30N 40°57' E 024°28'0 0.0
2017-Nov-16 21:01N 40°57' E 024°28'0 0.0
2017-Nov-16 20:31N 40°57' E 024°28'5 9.2
2017-Nov-16 20:01N 40°52' E 024°29'4 7.2
2017-Nov-16 19:31N 40°49' E 024°29'0 0.1
2017-Nov-16 19:00N 40°49' E 024°29'1 1.9
2017-Nov-16 18:30N 40°48' E 024°30'0 0.5
2017-Nov-16 18:00N 40°48' E 024°30'0 0.0
2017-Nov-16 17:30N 40°48' E 024°30'0 0.0
2017-Nov-16 17:00N 40°48' E 024°30'0 0.0
2017-Nov-16 16:30N 40°48' E 024°30'0 0.1
2017-Nov-16 16:00N 40°48' E 024°30'0 0.3
2017-Nov-16 15:30N 40°48' E 024°30'1 2.6
2017-Nov-16 15:00N 40°49' E 024°30'5 9.8
2017-Nov-16 14:30N 40°54' E 024°30'3 5.3
2017-Nov-16 13:59N 40°57' E 024°28'0 0.0
2017-Nov-16 13:26N 40°57' E 024°28'0 0.0
2017-Nov-16 12:59N 40°57' E 024°28'0 0.0
2017-Nov-16 12:29N 40°57' E 024°28'0 0.0
2017-Nov-16 11:59N 40°57' E 024°28'0 0.0
2017-Nov-16 11:29N 40°57' E 024°28'0 0.0
2017-Nov-16 10:59N 40°57' E 024°28'0 0.0
2017-Nov-16 10:29N 40°57' E 024°28'0 0.0
2017-Nov-16 09:59N 40°57' E 024°28'0 0.0
2017-Nov-16 09:29N 40°57' E 024°28'0 0.0
2017-Nov-16 08:59N 40°57' E 024°28'0 0.0
2017-Nov-16 08:31N 40°57' E 024°28'4 8.5
2017-Nov-16 08:00N 40°53' E 024°29'5 9.2
2017-Nov-16 07:30N 40°48' E 024°30'0 0.0
2017-Nov-16 07:00N 40°48' E 024°30'0 0.3
2017-Nov-16 06:30N 40°48' E 024°30'1 1.7
2017-Nov-16 05:59N 40°49' E 024°29'0 0.0
2017-Nov-16 05:26N 40°49' E 024°29'0 0.1
2017-Nov-16 04:59N 40°49' E 024°29'0 0.0
2017-Nov-16 04:29N 40°49' E 024°29'0 0.0
2017-Nov-16 03:59N 40°49' E 024°29'0 0.0
2017-Nov-16 03:29N 40°49' E 024°29'0 0.0
2017-Nov-16 02:59N 40°49' E 024°29'0 0.0
2017-Nov-16 02:29N 40°49' E 024°29'0 0.0
2017-Nov-16 01:59N 40°49' E 024°29'0 0.0
2017-Nov-16 01:29N 40°49' E 024°29'0 0.0
2017-Nov-16 00:56N 40°49' E 024°29'0 0.0
2017-Nov-16 00:20N 40°49' E 024°29'0 0.0
2017-Nov-15 23:59N 40°49' E 024°29'0 0.0
2017-Nov-15 23:29N 40°49' E 024°29'0 0.0
2017-Nov-15 22:59N 40°49' E 024°29'0 0.0
2017-Nov-15 22:29N 40°49' E 024°29'0 0.0
2017-Nov-15 21:59N 40°49' E 024°29'0 0.0
2017-Nov-15 21:29N 40°49' E 024°29'0 0.0
2017-Nov-15 20:59N 40°49' E 024°29'0 0.0
2017-Nov-15 20:29N 40°49' E 024°29'0 0.0
2017-Nov-15 19:59N 40°49' E 024°29'0 0.0
2017-Nov-15 19:29N 40°49' E 024°29'0 0.0
2017-Nov-15 18:56N 40°49' E 024°29'0 0.0
2017-Nov-15 18:29N 40°49' E 024°29'2 4.0
2017-Nov-15 18:00N 40°50' E 024°30'5 9.8
2017-Nov-15 17:30N 40°55' E 024°29'2 3.4
2017-Nov-15 16:59N 40°57' E 024°28'0 0.0
2017-Nov-15 16:29N 40°57' E 024°28'0 0.0
2017-Nov-15 15:59N 40°57' E 024°28'0 0.0
2017-Nov-15 15:29N 40°57' E 024°28'0 0.0
2017-Nov-15 14:59N 40°57' E 024°28'0 0.0
2017-Nov-15 14:29N 40°57' E 024°28'0 0.0
2017-Nov-15 13:59N 40°57' E 024°28'0 0.0
2017-Nov-15 13:29N 40°57' E 024°28'0 0.0
2017-Nov-15 12:59N 40°57' E 024°28'0 0.0
2017-Nov-15 12:29N 40°57' E 024°28'0 0.0
2017-Nov-15 11:59N 40°57' E 024°28'0 0.0
2017-Nov-15 11:29N 40°57' E 024°28'0 0.0
2017-Nov-15 10:59N 40°57' E 024°28'0 0.0
2017-Nov-15 10:29N 40°57' E 024°28'0 0.0
2017-Nov-15 09:59N 40°57' E 024°28'0 0.0
2017-Nov-15 09:29N 40°57' E 024°28'0 0.0
2017-Nov-15 08:59N 40°57' E 024°28'0 0.0
2017-Nov-15 08:29N 40°57' E 024°28'0 0.0
2017-Nov-15 07:59N 40°57' E 024°28'0 0.0
2017-Nov-15 07:29N 40°57' E 024°28'0 0.0
2017-Nov-15 06:59N 40°57' E 024°28'0 0.0
2017-Nov-15 06:30N 40°57' E 024°28'2 3.8
2017-Nov-15 06:00N 40°55' E 024°30'510.4
2017-Nov-15 05:30N 40°50' E 024°30'2 3.8
2017-Nov-15 05:00N 40°48' E 024°30'0 0.0
2017-Nov-15 04:30N 40°48' E 024°30'0 0.0
2017-Nov-15 04:00N 40°48' E 024°30'0 0.0
2017-Nov-15 03:30N 40°48' E 024°30'0 0.0
2017-Nov-15 03:00N 40°48' E 024°30'0 0.0
2017-Nov-15 02:30N 40°48' E 024°30'0 0.0
2017-Nov-15 02:00N 40°48' E 024°30'0 0.0
2017-Nov-15 01:30N 40°48' E 024°30'0 0.0
2017-Nov-15 01:00N 40°48' E 024°30'0 0.0
2017-Nov-15 00:30N 40°48' E 024°30'0 0.0
2017-Nov-15 00:00N 40°48' E 024°30'0 0.0
2017-Nov-14 23:30N 40°48' E 024°30'0 0.0
2017-Nov-14 23:00N 40°48' E 024°30'0 0.0
2017-Nov-14 22:30N 40°48' E 024°30'0 0.0
2017-Nov-14 22:00N 40°48' E 024°30'0 0.0
2017-Nov-14 21:30N 40°48' E 024°30'0 0.0
2017-Nov-14 21:00N 40°48' E 024°30'0 0.0
2017-Nov-14 20:30N 40°48' E 024°30'0 0.0
2017-Nov-14 20:00N 40°48' E 024°30'0 0.0
2017-Nov-14 19:30N 40°48' E 024°30'0 0.0
2017-Nov-14 19:00N 40°48' E 024°30'0 0.0
2017-Nov-14 18:30N 40°48' E 024°30'0 0.0
2017-Nov-14 18:00N 40°48' E 024°30'0 0.0
2017-Nov-14 17:30N 40°48' E 024°30'0 0.0
2017-Nov-14 17:00N 40°48' E 024°30'0 0.0
2017-Nov-14 16:30N 40°48' E 024°30'0 0.0
2017-Nov-14 16:00N 40°48' E 024°30'0 0.0
2017-Nov-14 15:30N 40°48' E 024°30'0 0.3
2017-Nov-14 15:00N 40°48' E 024°30'4 7.9
2017-Nov-14 14:30N 40°52' E 024°30'5 9.7
2017-Nov-14 14:00N 40°57' E 024°29'0 0.9
2017-Nov-14 13:30N 40°57' E 024°28'0 0.0
2017-Nov-14 13:00N 40°57' E 024°28'0 0.0
2017-Nov-14 12:30N 40°57' E 024°28'0 0.1
2017-Nov-14 12:00N 40°57' E 024°28'5 9.5
2017-Nov-14 11:30N 40°52' E 024°30'4 8.2
2017-Nov-14 11:00N 40°48' E 024°30'0 0.0
2017-Nov-14 10:30N 40°48' E 024°30'0 0.0
2017-Nov-14 10:00N 40°48' E 024°30'0 0.0
2017-Nov-14 09:30N 40°48' E 024°30'0 0.0
2017-Nov-14 09:00N 40°48' E 024°30'0 0.0
2017-Nov-14 08:30N 40°48' E 024°30'0 0.0
2017-Nov-14 08:00N 40°48' E 024°30'0 0.0
2017-Nov-14 07:30N 40°48' E 024°30'0 0.0
2017-Nov-14 07:00N 40°48' E 024°30'0 0.0
2017-Nov-14 06:27N 40°48' E 024°30'0 0.0
2017-Nov-14 05:57N 40°48' E 024°30'0 0.0
2017-Nov-14 05:30N 40°48' E 024°30'0 0.0
2017-Nov-14 05:00N 40°48' E 024°30'0 0.0
2017-Nov-14 04:30N 40°48' E 024°30'0 0.0
2017-Nov-14 04:00N 40°48' E 024°30'0 0.0
2017-Nov-14 03:30N 40°48' E 024°30'0 0.0
2017-Nov-14 03:00N 40°48' E 024°30'0 0.0
2017-Nov-14 02:30N 40°48' E 024°30'0 0.0
2017-Nov-14 02:00N 40°48' E 024°30'0 0.0
2017-Nov-14 01:30N 40°48' E 024°30'0 0.0
2017-Nov-14 01:00N 40°48' E 024°30'0 0.0
2017-Nov-14 00:30N 40°48' E 024°30'0 0.0
2017-Nov-14 00:00N 40°48' E 024°30'0 0.0
2017-Nov-13 23:30N 40°48' E 024°30'0 0.0
2017-Nov-13 23:00N 40°48' E 024°30'0 0.0
2017-Nov-13 22:30N 40°48' E 024°30'0 0.0
2017-Nov-13 22:00N 40°48' E 024°30'0 0.0
2017-Nov-13 02:00N 40°48' E 024°30'0 0.0
2017-Nov-13 01:30N 40°48' E 024°30'0 0.0
2017-Nov-13 01:00N 40°48' E 024°30'0 0.0
2017-Nov-13 00:30N 40°48' E 024°30'0 0.0
2017-Nov-13 00:00N 40°48' E 024°30'0 0.0
2017-Nov-12 23:30N 40°48' E 024°30'0 0.0
2017-Nov-12 23:00N 40°48' E 024°30'0 0.0
2017-Nov-12 22:30N 40°48' E 024°30'0 0.0
2017-Nov-12 22:00N 40°48' E 024°30'0 0.0
2017-Nov-12 21:30N 40°48' E 024°30'0 0.0
2017-Nov-12 21:00N 40°48' E 024°30'0 0.0
2017-Nov-12 20:30N 40°48' E 024°30'0 0.0
2017-Nov-12 20:00N 40°48' E 024°30'0 0.0
2017-Nov-12 19:30N 40°48' E 024°30'0 0.0
2017-Nov-12 19:00N 40°48' E 024°30'0 0.0
2017-Nov-12 18:30N 40°48' E 024°30'0 0.0
2017-Nov-12 18:00N 40°48' E 024°30'0 0.0
2017-Nov-12 17:30N 40°48' E 024°30'0 0.0
2017-Nov-12 17:00N 40°48' E 024°30'0 0.0
2017-Nov-12 16:30N 40°48' E 024°30'0 0.0
2017-Nov-12 16:00N 40°48' E 024°30'0 0.0
2017-Nov-12 15:30N 40°48' E 024°30'0 0.0
2017-Nov-12 15:00N 40°48' E 024°30'0 0.0
2017-Nov-12 14:30N 40°48' E 024°30'0 0.0
2017-Nov-12 14:00N 40°48' E 024°30'0 0.0
2017-Nov-12 13:30N 40°48' E 024°30'0 0.0
2017-Nov-12 13:00N 40°48' E 024°30'0 0.0
2017-Nov-12 12:30N 40°48' E 024°30'0 0.0
2017-Nov-12 12:00N 40°48' E 024°30'0 0.0
2017-Nov-12 11:30N 40°48' E 024°30'0 0.8
2017-Nov-12 11:00N 40°48' E 024°30'510.2
2017-Nov-12 10:30N 40°53' E 024°30'4 6.6
2017-Nov-12 09:58N 40°57' E 024°28'0 0.0
2017-Nov-12 09:28N 40°57' E 024°28'0 0.0
2017-Nov-12 08:58N 40°57' E 024°28'0 0.0
2017-Nov-12 08:28N 40°57' E 024°28'0 0.0
2017-Nov-12 07:55N 40°57' E 024°28'0 0.0
2017-Nov-12 07:28N 40°57' E 024°28'0 0.0
2017-Nov-12 06:58N 40°57' E 024°28'1 2.2
2017-Nov-12 06:30N 40°56' E 024°29'510.0
2017-Nov-12 06:00N 40°51' E 024°30'3 6.3
2017-Nov-12 05:30N 40°48' E 024°30'0 0.0
2017-Nov-12 05:00N 40°48' E 024°30'0 0.1
2017-Nov-12 04:30N 40°48' E 024°30'0 0.4
2017-Nov-12 04:00N 40°48' E 024°30'0 0.0
2017-Nov-12 03:30N 40°48' E 024°30'0 0.0
2017-Nov-12 03:00N 40°48' E 024°30'0 0.0
2017-Nov-12 02:30N 40°48' E 024°30'0 0.0
2017-Nov-12 02:00N 40°48' E 024°30'0 0.0
2017-Nov-12 01:30N 40°48' E 024°30'0 0.0
2017-Nov-12 01:00N 40°48' E 024°30'0 0.0
2017-Nov-12 00:30N 40°48' E 024°30'0 0.0
2017-Nov-12 00:00N 40°48' E 024°30'0 0.0
2017-Nov-11 23:30N 40°48' E 024°30'0 0.0
2017-Nov-11 23:00N 40°48' E 024°30'0 0.0
2017-Nov-11 22:30N 40°48' E 024°30'0 0.0
2017-Nov-11 22:01N 40°48' E 024°30'0 0.0
2017-Nov-11 21:31N 40°48' E 024°30'0 0.0
2017-Nov-11 21:01N 40°48' E 024°30'0 0.0
2017-Nov-11 20:31N 40°48' E 024°30'0 0.0
2017-Nov-11 20:01N 40°48' E 024°30'0 0.0
2017-Nov-11 19:31N 40°48' E 024°30'0 0.0
2017-Nov-11 19:00N 40°48' E 024°30'0 0.0
2017-Nov-11 18:31N 40°48' E 024°30'0 0.0
2017-Nov-11 18:00N 40°48' E 024°30'0 0.0
2017-Nov-11 17:31N 40°48' E 024°30'0 0.0
2017-Nov-11 17:01N 40°48' E 024°30'0 0.0
2017-Nov-11 16:31N 40°48' E 024°30'0 0.0
2017-Nov-11 16:01N 40°48' E 024°30'0 0.0
2017-Nov-11 15:31N 40°48' E 024°30'0 0.0
2017-Nov-11 15:01N 40°48' E 024°30'0 0.0
2017-Nov-11 14:28N 40°48' E 024°30'0 0.0
2017-Nov-11 14:01N 40°48' E 024°30'0 0.0
2017-Nov-11 13:31N 40°48' E 024°30'2 3.6
2017-Nov-11 13:01N 40°50' E 024°30'510.2
2017-Nov-11 12:30N 40°55' E 024°29'2 4.0
2017-Nov-11 12:00N 40°57' E 024°28'0 0.0
2017-Nov-11 11:30N 40°57' E 024°28'0 0.0
2017-Nov-11 11:00N 40°57' E 024°28'0 0.0
2017-Nov-11 10:30N 40°57' E 024°28'0 0.0
2017-Nov-11 09:57N 40°57' E 024°28'0 0.0
2017-Nov-11 09:30N 40°57' E 024°28'0 0.0
2017-Nov-11 09:00N 40°57' E 024°28'0 0.0
2017-Nov-11 08:30N 40°57' E 024°28'0 0.0
2017-Nov-11 08:00N 40°57' E 024°28'0 0.0
2017-Nov-11 07:30N 40°57' E 024°28'0 0.0
2017-Nov-11 07:00N 40°57' E 024°28'0 0.0
2017-Nov-11 06:30N 40°57' E 024°28'2 3.4
2017-Nov-11 06:00N 40°55' E 024°29'510.1
2017-Nov-11 05:30N 40°50' E 024°30'2 4.6
2017-Nov-11 05:00N 40°48' E 024°30'0 0.0
2017-Nov-11 04:30N 40°48' E 024°30'0 0.0
2017-Nov-11 04:00N 40°48' E 024°30'0 0.0
2017-Nov-11 03:30N 40°48' E 024°30'0 0.0
2017-Nov-11 03:00N 40°48' E 024°30'0 0.0
2017-Nov-11 02:30N 40°48' E 024°30'0 0.0
2017-Nov-11 02:00N 40°48' E 024°30'0 0.0
2017-Nov-11 01:30N 40°48' E 024°30'0 0.0
2017-Nov-11 01:00N 40°48' E 024°30'0 0.0
2017-Nov-11 00:30N 40°48' E 024°30'0 0.0
2017-Nov-11 00:00N 40°48' E 024°30'0 0.0
2017-Nov-10 23:30N 40°48' E 024°30'0 0.0
2017-Nov-10 23:00N 40°48' E 024°30'0 0.0
2017-Nov-10 22:30N 40°48' E 024°30'0 0.0
2017-Nov-10 22:00N 40°48' E 024°30'0 0.0
2017-Nov-10 21:30N 40°48' E 024°30'0 0.0
2017-Nov-10 21:00N 40°48' E 024°30'0 0.0
2017-Nov-10 20:30N 40°48' E 024°30'0 0.0
2017-Nov-10 20:00N 40°48' E 024°30'0 0.0
2017-Nov-10 19:30N 40°48' E 024°30'0 0.2
2017-Nov-10 19:00N 40°48' E 024°30'0 0.0
2017-Nov-10 18:30N 40°48' E 024°30'1 2.5
2017-Nov-10 18:00N 40°49' E 024°30'510.0
2017-Nov-10 17:30N 40°54' E 024°30'3 5.3
2017-Nov-10 16:59N 40°57' E 024°28'0 0.0
2017-Nov-10 16:29N 40°57' E 024°28'0 0.0
2017-Nov-10 15:59N 40°57' E 024°28'0 0.0
2017-Nov-10 15:29N 40°57' E 024°28'0 0.0
2017-Nov-10 14:50N 40°57' E 024°28'0 0.0
2017-Nov-10 14:29N 40°57' E 024°28'0 0.0
2017-Nov-10 13:59N 40°57' E 024°28'0 0.0
2017-Nov-10 13:29N 40°57' E 024°28'0 0.0
2017-Nov-10 12:59N 40°57' E 024°28'0 0.0
2017-Nov-10 12:29N 40°57' E 024°28'0 0.0
2017-Nov-10 11:59N 40°57' E 024°28'0 0.0
2017-Nov-10 11:29N 40°57' E 024°28'0 0.0
2017-Nov-10 10:59N 40°57' E 024°28'0 0.0
2017-Nov-10 10:23N 40°57' E 024°28'0 0.0
2017-Nov-10 09:59N 40°57' E 024°28'0 0.0
2017-Nov-10 09:29N 40°57' E 024°28'0 0.0
2017-Nov-10 08:59N 40°57' E 024°28'0 0.0
2017-Nov-10 08:29N 40°57' E 024°28'0 0.0
2017-Nov-10 07:59N 40°57' E 024°28'0 0.0
2017-Nov-10 07:31N 40°57' E 024°28'0 0.0
2017-Nov-10 07:00N 40°57' E 024°28'1 1.3
2017-Nov-10 06:30N 40°56' E 024°29'5 9.4
2017-Nov-10 06:00N 40°52' E 024°30'4 7.0
2017-Nov-10 05:28N 40°48' E 024°30'0 0.0
2017-Nov-10 04:46N 40°48' E 024°30'0 0.0
2017-Nov-10 04:28N 40°48' E 024°30'0 0.0
2017-Nov-10 03:58N 40°48' E 024°30'0 0.0
2017-Nov-10 03:28N 40°48' E 024°30'0 0.0
2017-Nov-10 02:58N 40°48' E 024°30'0 0.0
2017-Nov-10 02:28N 40°48' E 024°30'0 0.0
2017-Nov-10 01:58N 40°48' E 024°30'0 0.0
2017-Nov-10 01:31N 40°48' E 024°30'0 0.0
2017-Nov-10 01:01N 40°48' E 024°30'0 0.0
2017-Nov-10 00:30N 40°48' E 024°30'  

Dump ship's entire track history